Howard City, MI

7:35 PM EDT on September 26, 2016 (GMT -0400)
Smits Residence | | Change Station

Elev 925 ft 43.40 °N, 85.40 °W | Updated 12 minutes ago

Overcast
Overcast
58.5 °F
Feels Like 58.5 °F
N
2.2
Wind Variable Wind from WSW

Today
High -- | Low -- °F
--% Chance of Precip.
Yesterday
High -- | Low -- °F
Precip. -- in
Pressure 29.83 in
Visibility 10.0 miles
Clouds Mostly Cloudy 6000 ft
Mostly Cloudy 9000 ft
Overcast 11000 ft
Dew Point 45 °F
Humidity 60%
Rainfall 0.08 in
Snow Depth Not available.
7:34 AM 7:30 PM
Waning Crescent, 15% visible
METAR KRQB 262314Z AUTO 24005KT 10SM BKN060 BKN090 OVC110 14/05 A2983 RMK AO2 T01360052
Pressure 29.83 in
Visibility 10.0 miles
Clouds Mostly Cloudy 6000 ft
Mostly Cloudy 9000 ft
Overcast 11000 ft
Dew Point 45 °F
Humidity 60%
Rainfall 0.08 in
Snow Depth Not available.
7:34 AM 7:30 PM
Waning Crescent, 15% visible
METAR KRQB 262314Z AUTO 24005KT 10SM BKN060 BKN090 OVC110 14/05 A2983 RMK AO2 T01360052

10-Day Weather Forecast

Almanac

Astronomy

Sep. 26, 2016 Rise Set
Actual Time
Civil Twilight
Nautical Twilight
Astronomical Twilight
Moon
Length of Visible Light
Length of Day
Tomorrow will be .
, % of the Moon is Illuminated

Today's Extremes

State Highs State Lows

Community

WunderPhotos

Upload Photos

1,941,987 photos uploaded!

WunderBlog® & News

Nearby

Air Quality

  Air Quality AQ Index Pollutant
Not available.

Snow Depth

Station Depth Elevation

Earthquake Activity

City Distance Mag. Time & Date
Minimum magnitude displayed is 2.5.

Coastal Water Temperatures

Place Temperature

Stations

Nearby Weather Stations

Station Location Temp. Windchill Dew Point Humidity Wind Precip. Elev Updated Type
                   

Watches & Warnings

There are currently no watches in effect.